Terminal Aerodrome Forecast
Issued by NWS Springfield, MO

Home | Current Version | Previous Version | Text Only | Print | Product List | Glossary On
Versions: 1 2 3 4 5 6 7 8 9 10 11 12 13 14 15 16 17 18 19 20 21 22 23 24 25 26 27
921
FTUS43 KSGF 141345 AAA
TAFSGF
TAF AMD
KSGF 141345Z 1414/1512 35005KT 4SM -RA BR OVC003
     FM141600 36005KT 2SM -SHRA OVC003
     FM142000 01005KT 3SM -SHRA OVC003=

USA.gov is the U.S. government's official web portal to all federal, state and local government web resources and services.